Niederrhein Airport EDLV

Flugplatz Daten

Name: Niederrhein Airport

Ident: EDLV

Lat: 51,60240173

Long: 6,142169952

Platzhöhe: 106 ft

IataCode: NRN

City: Weeze

Metar

2021/10/20 13:20
EDLV 201320Z 21012KT 180V240 9999 BKN018 17/14 Q1003

Taf

2021/10/20 12:27
TAF EDLV 201100Z 2012/2112 20011KT 9999 SCT030
TEMPO 2012/2017 22015G25KT PROB30
TEMPO 2016/2021 22020G35KT TSRA BKN020CB
TEMPO 2021/2101 RA BKN014
BECMG 2100/2103 22015G30KT
TEMPO 2101/2112 24020G35KT SHRA BKN012CB PROB30
TEMPO 2102/2108 26025G40KT 4500 TSRA BKN009CB
Gewünschte Webcam nicht vorhanden? Dann fügen Sie eine hinzu. Sie wird dann so schnell wie möglich freigeschaltet
Url: Title: